AK74 weather

Kodiak Emergency/Spruce Cape Heliport
Kodiak, Alaska, United States

Public forecast

Using degrees Fahrenheit for public forecast. Weather courtesy of forecast.io.

METAR (pilot weather report)

Closest report is Kodiak Airport, 5.7 nm (10.5 km) SW. Retrieved 2019/07/16 06:53 UTC (47 minutes ago):

PADQ 160653Z AUTO 22003KT 9SM -RA BKN048 OVC065 13/11 A2969

TAF (pilot weather forecast)

Closest forecast is Kodiak Airport, 5.7 nm (10.5 km) SW. Retrieved 2019/07/16 06:42 UTC (58 minutes ago):

TAF PADQ 160539Z 1606/1706 VRB05KT 6SM -RA BR BKN020 FM161400 VRB03KT 2SM -RA BR BKN006 OVC010 FM162200 35006KT P6SM VCSH FEW006 BKN018 FM170200 32006KT P6SM VCSH FEW010 BKN020